Terminal Aerodrome Forecast
Issued by NWS Sterling, VA

Current Version | Previous Version | Text Only | Print | Product List | Glossary Off
Versions: 1 2 3 4 5 6 7 8 9 10 11 12 13 14 15 16 17

000
FTUS41 KLWX 291720
TAFMRB
TAF
KMRB 291720Z 2918/3018 09008G17KT 4SM -RA BR OVC012
     FM300000 08012G19KT 2SM SHRA OVC008
     FM300600 06011KT 4SM SHRA OVC008
     FM301200 06010KT 5SM -SHRA OVC015=

USA.gov is the U.S. government's official web portal to all federal, state and local government web resources and services.